Time;durP1;ratioP1;P1;durP2;ratioP2;P2;SDS_P1;SDS_P2;PMS_P1;PMS_P2;Temp;Humidity;BMP_temperature;BMP_pressure;BME280_temperature;BME280_humidity;BME280_pressure;Samples;Min_cycle;Max_cycle;Signal;HPM_P1;HPM_P2
2023/05/11 00:00:18;;;;;;;16.17;14.97;;;;;;;;;;5032593;28;20239;-81
2023/05/11 00:02:44;;;;;;;17.03;15.63;;;;;;;;;;5033581;28;20301;-81
2023/05/11 00:05:10;;;;;;;18.93;17.27;;;;;;;;;;5032323;28;20230;-84
2023/05/11 00:07:37;;;;;;;19.13;17.60;;;;;;;;;;5021052;28;20215;-82
2023/05/11 00:10:05;;;;;;;18.30;16.80;;;;;;;;;;5016958;28;20238;-80
2023/05/11 00:12:33;;;;;;;18.80;17.30;;;;;;;;;;5002644;28;20611;-83
2023/05/11 00:15:04;;;;;;;19.17;17.57;;;;;;;;;;5032229;28;20235;-81
2023/05/11 00:17:30;;;;;;;19.83;18.23;;;;;;;;;;5019431;28;20215;-83
2023/05/11 00:19:55;;;;;;;19.50;17.93;;;;;;;;;;5013092;28;20732;-82
2023/05/11 00:22:20;;;;;;;19.27;17.73;;;;;;;;;;5004500;28;20752;-84
2023/05/11 00:24:47;;;;;;;20.93;19.13;;;;;;;;;;5012759;28;20651;-83
2023/05/11 00:27:12;;;;;;;20.27;18.63;;;;;;;;;;5041870;28;20226;-83
2023/05/11 00:29:38;;;;;;;20.33;18.63;;;;;;;;;;5030955;28;20212;-82
2023/05/11 00:32:03;;;;;;;20.40;18.63;;;;;;;;;;5013582;28;20708;-83
2023/05/11 00:34:29;;;;;;;22.33;20.43;;;;;;;;;;5013250;28;20230;-83
2023/05/11 00:36:56;;;;;;;22.70;20.80;;;;;;;;;;5009387;28;21052;-82
2023/05/11 00:39:25;;;;;;;23.37;21.37;;;;;;;;;;5025682;28;20247;-82
2023/05/11 00:41:50;;;;;;;23.67;21.47;;;;;;;;;;5046105;28;20228;-81
2023/05/11 00:44:19;;;;;;;23.03;21.03;;;;;;;;;;5017255;28;20218;-84
2023/05/11 00:46:44;;;;;;;22.10;20.10;;;;;;;;;;5040860;28;20220;-82
2023/05/11 00:49:16;;;;;;;21.10;19.20;;;;;;;;;;5013411;28;20230;-83
2023/05/11 00:51:42;;;;;;;22.00;20.10;;;;;;;;;;5025834;28;20239;-83
2023/05/11 00:54:14;;;;;;;23.33;21.33;;;;;;;;;;5016073;28;20219;-82
2023/05/11 00:56:40;;;;;;;23.10;21.10;;;;;;;;;;5015103;28;20236;-82
2023/05/11 00:59:05;;;;;;;22.77;20.83;;;;;;;;;;5015376;28;20220;-84
2023/05/11 01:01:34;;;;;;;22.47;20.47;;;;;;;;;;5017216;28;20806;-82
2023/05/11 01:04:01;;;;;;;24.13;22.13;;;;;;;;;;5032114;28;20220;-81
2023/05/11 01:06:38;;;;;;;23.43;21.47;;;;;;;;;;5028805;28;20214;-83
2023/05/11 01:09:31;;;;;;;23.47;21.50;;;;;;;;;;5010418;28;20211;-81
2023/05/11 01:12:41;;;;;;;23.80;21.70;;;;;;;;;;5029138;28;20227;-82
2023/05/11 01:15:11;;;;;;;23.43;21.33;;;;;;;;;;4936537;28;20313;-82
2023/05/11 01:17:52;;;;;;;23.67;21.60;;;;;;;;;;5028205;28;20798;-82
2023/05/11 01:20:26;;;;;;;24.80;22.60;;;;;;;;;;4981783;28;20236;-80
2023/05/11 01:23:07;;;;;;;24.07;21.97;;;;;;;;;;5009738;28;20222;-84
2023/05/11 01:26:07;;;;;;;26.60;23.00;;;;;;;;;;5031758;28;20234;-83
2023/05/11 01:29:08;;;;;;;25.00;22.47;;;;;;;;;;5020661;28;20282;-82
2023/05/11 01:31:34;;;;;;;30.47;22.33;;;;;;;;;;5031191;28;20223;-80
2023/05/11 01:34:05;;;;;;;23.73;21.70;;;;;;;;;;5029858;28;20947;-82
2023/05/11 01:36:36;;;;;;;24.50;21.83;;;;;;;;;;5008657;28;20285;-82
2023/05/11 01:39:08;;;;;;;26.63;22.23;;;;;;;;;;5015852;28;20215;-82
2023/05/11 01:41:33;;;;;;;27.70;22.63;;;;;;;;;;5012575;28;20230;-83
2023/05/11 01:44:02;;;;;;;26.17;23.37;;;;;;;;;;5008990;28;20600;-81
2023/05/11 01:46:31;;;;;;;25.20;22.63;;;;;;;;;;5008052;28;20730;-82
2023/05/11 01:48:58;;;;;;;28.37;23.97;;;;;;;;;;5012718;28;20219;-83
2023/05/11 01:51:29;;;;;;;27.50;23.33;;;;;;;;;;5013148;28;20568;-81
2023/05/11 01:53:55;;;;;;;26.17;23.67;;;;;;;;;;5014944;28;20223;-82
2023/05/11 01:56:20;;;;;;;26.27;23.37;;;;;;;;;;5027271;28;20235;-82
2023/05/11 01:58:48;;;;;;;30.53;23.77;;;;;;;;;;5009901;28;20281;-82
2023/05/11 02:01:16;;;;;;;25.13;22.43;;;;;;;;;;5013289;28;20778;-83
2023/05/11 02:03:44;;;;;;;27.27;23.43;;;;;;;;;;5013884;28;20220;-80
2023/05/11 02:06:12;;;;;;;26.57;23.83;;;;;;;;;;5008915;28;20258;-84
2023/05/11 02:08:39;;;;;;;26.20;23.37;;;;;;;;;;4994758;28;20250;-81
2023/05/11 02:11:04;;;;;;;26.47;23.87;;;;;;;;;;5015865;28;20708;-84
2023/05/11 02:13:34;;;;;;;24.23;21.90;;;;;;;;;;5017794;28;20246;-84
2023/05/11 02:15:59;;;;;;;23.97;21.87;;;;;;;;;;5030407;28;20603;-83
2023/05/11 02:18:27;;;;;;;23.30;21.30;;;;;;;;;;4994902;28;20215;-81
2023/05/11 02:20:56;;;;;;;24.10;22.00;;;;;;;;;;5010994;28;20228;-85
2023/05/11 02:23:25;;;;;;;24.17;22.07;;;;;;;;;;5015491;28;20220;-84
2023/05/11 02:25:53;;;;;;;25.07;22.77;;;;;;;;;;5042407;28;20211;-80
2023/05/11 02:28:20;;;;;;;24.53;22.17;;;;;;;;;;5026511;28;20210;-82
2023/05/11 02:30:49;;;;;;;22.53;20.53;;;;;;;;;;5033336;28;20679;-82
2023/05/11 02:33:26;;;;;;;22.00;20.00;;;;;;;;;;5030521;28;20279;-83
2023/05/11 02:35:54;;;;;;;21.70;19.73;;;;;;;;;;5013934;28;20235;-81
2023/05/11 02:38:24;;;;;;;22.87;20.67;;;;;;;;;;5025221;28;20223;-80
2023/05/11 02:40:54;;;;;;;22.67;20.47;;;;;;;;;;5045683;28;20339;-80
2023/05/11 02:43:27;;;;;;;21.83;19.93;;;;;;;;;;5045766;28;20223;-81
2023/05/11 02:46:05;;;;;;;22.30;20.27;;;;;;;;;;5022575;28;20227;-84
2023/05/11 02:48:36;;;;;;;21.77;19.73;;;;;;;;;;5016716;28;20289;-83
2023/05/11 02:51:06;;;;;;;22.73;20.57;;;;;;;;;;5010863;28;20207;-81
2023/05/11 02:53:37;;;;;;;24.43;21.93;;;;;;;;;;5013441;28;20207;-81
2023/05/11 02:56:02;;;;;;;25.43;22.73;;;;;;;;;;5050642;28;20230;-81
2023/05/11 02:58:33;;;;;;;26.20;23.67;;;;;;;;;;5026204;28;20462;-80
2023/05/11 03:01:11;;;;;;;27.40;23.63;;;;;;;;;;5038203;28;20456;-79
2023/05/11 03:03:37;;;;;;;31.13;23.83;;;;;;;;;;5031306;28;20207;-80
2023/05/11 03:06:09;;;;;;;27.17;24.27;;;;;;;;;;5017547;28;20219;-81
2023/05/11 03:08:37;;;;;;;29.37;24.70;;;;;;;;;;5015294;28;20260;-81
2023/05/11 03:11:04;;;;;;;28.43;25.30;;;;;;;;;;5046680;28;20216;-81
2023/05/11 03:13:30;;;;;;;32.23;25.30;;;;;;;;;;5060039;28;20400;-80
2023/05/11 03:16:01;;;;;;;33.27;25.23;;;;;;;;;;5032035;28;20227;-80
2023/05/11 03:18:28;;;;;;;28.83;25.07;;;;;;;;;;5018337;28;20226;-82
2023/05/11 03:20:54;;;;;;;30.27;26.33;;;;;;;;;;5035768;28;20236;-80
2023/05/11 03:23:21;;;;;;;38.43;25.93;;;;;;;;;;5036375;28;20227;-81
2023/05/11 03:25:47;;;;;;;36.67;26.37;;;;;;;;;;5021045;28;20228;-80
2023/05/11 03:28:13;;;;;;;46.70;26.53;;;;;;;;;;5037123;28;20259;-81
2023/05/11 03:30:49;;;;;;;34.47;26.73;;;;;;;;;;5016976;28;20228;-80
2023/05/11 03:33:14;;;;;;;36.43;27.23;;;;;;;;;;5051984;28;20245;-81
2023/05/11 03:35:43;;;;;;;33.23;27.10;;;;;;;;;;5035594;28;20280;-80
2023/05/11 03:38:09;;;;;;;30.77;27.47;;;;;;;;;;5010529;28;20225;-81
2023/05/11 03:40:35;;;;;;;31.40;28.10;;;;;;;;;;5029966;28;20236;-80
2023/05/11 03:43:01;;;;;;;31.27;27.93;;;;;;;;;;5051759;28;20212;-80
2023/05/11 03:45:27;;;;;;;32.27;27.27;;;;;;;;;;5030844;28;20215;-80
2023/05/11 03:47:53;;;;;;;32.93;27.37;;;;;;;;;;5025824;28;20231;-80
2023/05/11 03:50:20;;;;;;;30.00;26.30;;;;;;;;;;5025614;28;20224;-76
2023/05/11 03:52:46;;;;;;;31.40;27.97;;;;;;;;;;5016799;28;20215;-80
2023/05/11 03:55:12;;;;;;;32.97;28.70;;;;;;;;;;5019206;28;20223;-81
2023/05/11 03:57:40;;;;;;;34.43;30.10;;;;;;;;;;5030256;28;20223;-81
2023/05/11 04:00:07;;;;;;;34.97;28.87;;;;;;;;;;5038297;28;20252;-81
2023/05/11 04:02:40;;;;;;;37.37;29.67;;;;;;;;;;5018458;28;20231;-79
2023/05/11 04:05:07;;;;;;;34.60;29.17;;;;;;;;;;5003589;28;20272;-81
2023/05/11 04:07:33;;;;;;;34.23;29.60;;;;;;;;;;5035358;28;20238;-79
2023/05/11 04:09:59;;;;;;;35.10;30.67;;;;;;;;;;5001018;28;20227;-80
2023/05/11 04:12:25;;;;;;;38.17;31.03;;;;;;;;;;5013944;28;20223;-82
2023/05/11 04:14:50;;;;;;;38.97;31.03;;;;;;;;;;4994947;28;20235;-80
2023/05/11 04:17:16;;;;;;;38.20;31.63;;;;;;;;;;5014860;28;20226;-80
2023/05/11 04:19:43;;;;;;;39.10;30.67;;;;;;;;;;5031611;28;20852;-79
2023/05/11 04:22:11;;;;;;;37.40;30.97;;;;;;;;;;5004705;28;20223;-79
2023/05/11 04:24:37;;;;;;;37.60;29.73;;;;;;;;;;5012271;28;20306;-79
2023/05/11 04:27:03;;;;;;;37.50;30.00;;;;;;;;;;5012684;28;20231;-79
2023/05/11 04:29:32;;;;;;;39.23;30.07;;;;;;;;;;5036887;28;20286;-77
2023/05/11 04:31:58;;;;;;;39.00;30.13;;;;;;;;;;5025407;28;20216;-81
2023/05/11 04:34:26;;;;;;;41.40;30.70;;;;;;;;;;5038492;28;20220;-78
2023/05/11 04:36:51;;;;;;;45.23;30.53;;;;;;;;;;5012859;28;20219;-80
2023/05/11 04:39:20;;;;;;;39.10;29.53;;;;;;;;;;5016375;28;20220;-80
2023/05/11 04:41:45;;;;;;;44.73;31.17;;;;;;;;;;5034012;28;20231;-79
2023/05/11 04:44:11;;;;;;;40.27;29.37;;;;;;;;;;5017737;28;20228;-80
2023/05/11 04:46:39;;;;;;;44.57;31.17;;;;;;;;;;5033958;28;20227;-81
2023/05/11 04:49:07;;;;;;;44.33;30.27;;;;;;;;;;5002628;28;20266;-79
2023/05/11 04:51:36;;;;;;;46.20;30.30;;;;;;;;;;5016167;28;20231;-80
2023/05/11 04:54:01;;;;;;;47.83;31.77;;;;;;;;;;5011002;28;20224;-80
2023/05/11 04:56:27;;;;;;;47.57;32.73;;;;;;;;;;5004052;28;20249;-82
2023/05/11 04:58:53;;;;;;;49.53;32.87;;;;;;;;;;5021368;28;20223;-78
2023/05/11 05:01:21;;;;;;;53.17;32.53;;;;;;;;;;5033539;28;20232;-78
2023/05/11 05:03:48;;;;;;;43.47;29.93;;;;;;;;;;5016881;28;20973;-79
2023/05/11 05:06:14;;;;;;;46.03;32.37;;;;;;;;;;5025947;28;20224;-82
2023/05/11 05:08:41;;;;;;;49.23;32.90;;;;;;;;;;5020699;28;20224;-79
2023/05/11 05:11:10;;;;;;;47.47;32.77;;;;;;;;;;5015107;28;20238;-80
2023/05/11 05:13:36;;;;;;;49.97;31.90;;;;;;;;;;5001602;28;20228;-78
2023/05/11 05:16:01;;;;;;;47.13;31.63;;;;;;;;;;5037070;28;20239;-78
2023/05/11 05:18:27;;;;;;;48.20;31.07;;;;;;;;;;5037072;28;20219;-80
2023/05/11 05:20:53;;;;;;;44.33;31.47;;;;;;;;;;5018002;28;20268;-80
2023/05/11 05:23:19;;;;;;;44.83;31.77;;;;;;;;;;5012571;28;20226;-79
2023/05/11 05:25:44;;;;;;;45.57;31.60;;;;;;;;;;5031588;28;20227;-79
2023/05/11 05:28:10;;;;;;;50.83;33.03;;;;;;;;;;5021413;28;20783;-79
2023/05/11 05:30:36;;;;;;;49.33;32.77;;;;;;;;;;5023409;28;20224;-79
2023/05/11 05:33:01;;;;;;;51.57;33.57;;;;;;;;;;5028519;28;20223;-78
2023/05/11 05:35:27;;;;;;;49.27;32.83;;;;;;;;;;5031145;28;20297;-79
2023/05/11 05:37:53;;;;;;;61.43;36.33;;;;;;;;;;5040510;28;20306;-79
2023/05/11 05:40:23;;;;;;;51.87;35.00;;;;;;;;;;4999963;28;20224;-79
2023/05/11 05:42:53;;;;;;;61.20;37.47;;;;;;;;;;5006517;28;20249;-80
2023/05/11 05:45:20;;;;;;;56.37;36.10;;;;;;;;;;4998772;28;20281;-79
2023/05/11 05:47:50;;;;;;;56.97;37.43;;;;;;;;;;5029621;28;20224;-79
2023/05/11 05:50:18;;;;;;;55.87;36.27;;;;;;;;;;5017468;28;20232;-80
2023/05/11 05:52:45;;;;;;;58.50;37.73;;;;;;;;;;5020403;28;20227;-79
2023/05/11 05:55:11;;;;;;;59.60;37.80;;;;;;;;;;5016612;28;20228;-79
2023/05/11 05:57:40;;;;;;;56.60;36.37;;;;;;;;;;4997466;28;20234;-80
2023/05/11 06:00:09;;;;;;;59.33;37.47;;;;;;;;;;5042621;28;20250;-80
2023/05/11 06:02:41;;;;;;;57.37;38.20;;;;;;;;;;5029948;28;20285;-79
2023/05/11 06:05:13;;;;;;;62.40;39.77;;;;;;;;;;5027813;28;20265;-78
2023/05/11 06:07:41;;;;;;;57.47;38.57;;;;;;;;;;5018753;28;20235;-79
2023/05/11 06:10:10;;;;;;;57.03;37.80;;;;;;;;;;5013913;28;20618;-79
2023/05/11 06:12:35;;;;;;;56.87;39.33;;;;;;;;;;4998847;28;20228;-79
2023/05/11 06:15:01;;;;;;;52.23;36.87;;;;;;;;;;5041543;28;20235;-80
2023/05/11 06:17:28;;;;;;;57.20;37.40;;;;;;;;;;4999223;28;20243;-81
2023/05/11 06:19:54;;;;;;;53.57;37.73;;;;;;;;;;5011218;28;20231;-80
2023/05/11 06:22:26;;;;;;;54.80;38.57;;;;;;;;;;5019582;28;20215;-79
2023/05/11 06:24:51;;;;;;;55.73;37.90;;;;;;;;;;5034715;28;20239;-80
2023/05/11 06:27:18;;;;;;;52.77;37.33;;;;;;;;;;4975293;28;20306;-80
2023/05/11 06:29:44;;;;;;;50.93;37.17;;;;;;;;;;5012282;28;20289;-81
2023/05/11 06:32:12;;;;;;;52.10;37.33;;;;;;;;;;5024870;28;20215;-80
2023/05/11 06:34:38;;;;;;;50.73;37.70;;;;;;;;;;5016232;28;20227;-79
2023/05/11 06:37:04;;;;;;;54.07;38.20;;;;;;;;;;5007909;28;20231;-78
2023/05/11 06:39:30;;;;;;;52.60;37.37;;;;;;;;;;5025481;28;20242;-79
2023/05/11 06:41:55;;;;;;;48.90;36.27;;;;;;;;;;5010059;28;20220;-78
2023/05/11 06:44:21;;;;;;;48.27;36.40;;;;;;;;;;5025111;28;20215;-78
2023/05/11 06:46:51;;;;;;;48.13;36.53;;;;;;;;;;5027160;28;20215;-79
2023/05/11 06:49:16;;;;;;;45.63;34.33;;;;;;;;;;5040107;28;20234;-79
2023/05/11 06:51:44;;;;;;;45.17;34.93;;;;;;;;;;5046205;28;20237;-78
2023/05/11 06:54:11;;;;;;;45.30;36.50;;;;;;;;;;5021455;28;20208;-79
2023/05/11 06:56:39;;;;;;;40.70;33.83;;;;;;;;;;5032043;28;20693;-79
2023/05/11 06:59:05;;;;;;;42.13;33.88;;;;;;;;;;5020604;28;20237;-79
2023/05/11 07:01:31;;;;;;;39.27;31.73;;;;;;;;;;5029788;28;20811;-80
2023/05/11 07:03:58;;;;;;;38.60;32.95;;;;;;;;;;5043567;28;20223;-79
2023/05/11 07:06:26;;;;;;;43.88;34.08;;;;;;;;;;5016875;28;20215;-79
2023/05/11 07:08:52;;;;;;;45.45;34.05;;;;;;;;;;5033885;28;20231;-79
2023/05/11 07:11:17;;;;;;;43.90;34.88;;;;;;;;;;5014571;28;20223;-79
2023/05/11 07:13:44;;;;;;;43.20;34.20;;;;;;;;;;5037925;28;20228;-80
2023/05/11 07:16:09;;;;;;;43.30;36.05;;;;;;;;;;5019539;28;20228;-80
2023/05/11 07:18:35;;;;;;;48.45;35.85;;;;;;;;;;5022565;28;20231;-78
2023/05/11 07:21:00;;;;;;;42.42;35.38;;;;;;;;;;5036267;28;20595;-80
2023/05/11 07:23:26;;;;;;;41.92;34.33;;;;;;;;;;5015261;28;20223;-80
2023/05/11 07:25:54;;;;;;;42.40;33.53;;;;;;;;;;5015303;28;20220;-80
2023/05/11 07:28:22;;;;;;;40.37;33.33;;;;;;;;;;5030305;28;20220;-79
2023/05/11 07:30:48;;;;;;;39.87;32.30;;;;;;;;;;5042126;28;20232;-79
2023/05/11 07:33:13;;;;;;;39.20;30.90;;;;;;;;;;5020255;28;20285;-79
2023/05/11 07:35:41;;;;;;;36.77;30.53;;;;;;;;;;5034754;28;20224;-79
2023/05/11 07:38:08;;;;;;;31.70;25.85;;;;;;;;;;5038646;28;20311;-80
2023/05/11 07:40:34;;;;;;;29.42;25.75;;;;;;;;;;5020014;28;20227;-78
2023/05/11 07:42:59;;;;;;;30.02;24.65;;;;;;;;;;5019023;28;20250;-80
2023/05/11 07:45:25;;;;;;;30.88;24.48;;;;;;;;;;5029544;28;20285;-79
2023/05/11 07:47:52;;;;;;;26.17;23.38;;;;;;;;;;5027762;28;20238;-80
2023/05/11 07:50:18;;;;;;;27.77;24.58;;;;;;;;;;4998561;28;20293;-80
2023/05/11 07:52:43;;;;;;;27.13;24.20;;;;;;;;;;5019380;28;20215;-80
2023/05/11 07:55:11;;;;;;;28.80;24.63;;;;;;;;;;5016925;28;21156;-79
2023/05/11 07:57:37;;;;;;;29.02;24.58;;;;;;;;;;5019851;28;20216;-80
2023/05/11 08:00:04;;;;;;;25.77;23.05;;;;;;;;;;5037332;28;20709;-79
2023/05/11 08:02:37;;;;;;;24.33;21.73;;;;;;;;;;5027522;28;20330;-79
2023/05/11 08:05:03;;;;;;;26.45;23.40;;;;;;;;;;5039287;28;20224;-79
2023/05/11 08:07:28;;;;;;;26.65;22.33;;;;;;;;;;5032587;28;20585;-79
2023/05/11 08:09:54;;;;;;;25.55;22.55;;;;;;;;;;5037247;28;20596;-79
2023/05/11 08:12:23;;;;;;;25.65;22.58;;;;;;;;;;5001597;28;20223;-80
2023/05/11 08:14:51;;;;;;;25.10;22.45;;;;;;;;;;5043737;28;20259;-80
2023/05/11 08:17:16;;;;;;;25.75;23.08;;;;;;;;;;5037410;28;20299;-80
2023/05/11 08:19:42;;;;;;;26.35;23.65;;;;;;;;;;5027486;28;20696;-80
2023/05/11 08:22:10;;;;;;;25.95;23.13;;;;;;;;;;5034350;28;20216;-79
2023/05/11 08:24:36;;;;;;;26.48;23.67;;;;;;;;;;5019668;28;20922;-79
2023/05/11 08:27:04;;;;;;;26.30;23.60;;;;;;;;;;5033821;28;20226;-79
2023/05/11 08:29:30;;;;;;;28.10;25.13;;;;;;;;;;5032861;28;20215;-79
2023/05/11 08:31:55;;;;;;;28.52;25.52;;;;;;;;;;5032388;28;20242;-78
2023/05/11 08:34:23;;;;;;;30.38;24.23;;;;;;;;;;5034955;28;20227;-78
2023/05/11 08:36:48;;;;;;;30.30;22.42;;;;;;;;;;5047685;28;20722;-79
2023/05/11 08:39:17;;;;;;;25.85;23.15;;;;;;;;;;5036747;28;20436;-78
2023/05/11 08:41:43;;;;;;;24.83;22.27;;;;;;;;;;5042549;28;20314;-77
2023/05/11 08:44:09;;;;;;;23.63;21.23;;;;;;;;;;5030279;28;20753;-78
2023/05/11 08:46:35;;;;;;;23.67;21.27;;;;;;;;;;5022267;28;20220;-78
2023/05/11 08:49:00;;;;;;;24.33;21.75;;;;;;;;;;5010705;28;20231;-79
2023/05/11 08:51:28;;;;;;;22.52;20.23;;;;;;;;;;5016762;28;20220;-79
2023/05/11 08:53:55;;;;;;;21.83;19.58;;;;;;;;;;5032076;28;20227;-78
2023/05/11 08:56:21;;;;;;;22.58;20.27;;;;;;;;;;5033054;28;20275;-80
2023/05/11 08:58:47;;;;;;;23.00;20.55;;;;;;;;;;5010941;28;20212;-79
2023/05/11 09:01:13;;;;;;;24.85;19.55;;;;;;;;;;5046377;28;20226;-79
2023/05/11 09:03:41;;;;;;;22.83;19.52;;;;;;;;;;5001080;28;20343;-79
2023/05/11 09:06:07;;;;;;;21.27;19.02;;;;;;;;;;4994517;28;20629;-79
2023/05/11 09:08:36;;;;;;;22.13;19.90;;;;;;;;;;5035140;28;20231;-77
2023/05/11 09:11:02;;;;;;;22.98;20.50;;;;;;;;;;5025414;28;20228;-79
2023/05/11 09:13:28;;;;;;;24.33;20.23;;;;;;;;;;5013563;28;20223;-79
2023/05/11 09:15:54;;;;;;;21.00;18.85;;;;;;;;;;5030980;28;20246;-78
2023/05/11 09:18:19;;;;;;;23.25;19.65;;;;;;;;;;4991235;28;20219;-79
2023/05/11 09:20:45;;;;;;;24.35;20.83;;;;;;;;;;5011134;28;20234;-80
2023/05/11 09:23:16;;;;;;;24.42;21.35;;;;;;;;;;5031412;28;20219;-79
2023/05/11 09:25:44;;;;;;;24.67;20.50;;;;;;;;;;5015729;28;20223;-78
2023/05/11 09:28:15;;;;;;;26.45;22.13;;;;;;;;;;5012019;28;20627;-78
2023/05/11 09:30:41;;;;;;;26.05;22.45;;;;;;;;;;5031206;28;20223;-78
2023/05/11 09:33:07;;;;;;;27.60;23.70;;;;;;;;;;5048463;28;20223;-78
2023/05/11 09:35:33;;;;;;;25.52;22.70;;;;;;;;;;5035551;28;20227;-77
2023/05/11 09:38:11;;;;;;;27.75;22.92;;;;;;;;;;5032155;28;20763;-78
2023/05/11 09:40:38;;;;;;;25.55;20.50;;;;;;;;;;5032582;28;20256;-77
2023/05/11 09:43:28;;;;;;;23.33;20.92;;;;;;;;;;5037514;28;20215;-80
2023/05/11 09:45:55;;;;;;;23.65;20.50;;;;;;;;;;5035088;28;20747;-79
2023/05/11 09:48:20;;;;;;;22.55;19.92;;;;;;;;;;4998264;28;20765;-79
2023/05/11 09:50:50;;;;;;;22.83;20.40;;;;;;;;;;5028891;28;20231;-79
2023/05/11 09:53:16;;;;;;;23.60;21.00;;;;;;;;;;4995550;28;20954;-78
2023/05/11 09:55:54;;;;;;;24.80;22.10;;;;;;;;;;5018383;28;20297;-80
2023/05/11 09:58:22;;;;;;;25.48;22.55;;;;;;;;;;5018168;28;20295;-80
2023/05/11 10:00:51;;;;;;;25.90;21.83;;;;;;;;;;5032641;28;20638;-81
2023/05/11 10:03:16;;;;;;;26.83;23.17;;;;;;;;;;5015861;28;20242;-78
2023/05/11 10:06:00;;;;;;;24.10;21.55;;;;;;;;;;5018612;28;20223;-79
2023/05/11 10:08:30;;;;;;;21.92;19.63;;;;;;;;;;5017445;28;20691;-79
2023/05/11 10:10:56;;;;;;;23.77;21.30;;;;;;;;;;5030798;28;20238;-81
2023/05/11 10:13:21;;;;;;;24.02;21.63;;;;;;;;;;5017307;28;20223;-82
2023/05/11 10:15:53;;;;;;;24.15;21.60;;;;;;;;;;4994102;28;20223;-82
2023/05/11 10:18:21;;;;;;;23.30;20.58;;;;;;;;;;5015394;28;20249;-81
2023/05/11 10:20:47;;;;;;;24.40;21.98;;;;;;;;;;5023986;28;20220;-81
2023/05/11 10:23:13;;;;;;;24.35;21.80;;;;;;;;;;4996961;28;20235;-84
2023/05/11 10:25:39;;;;;;;24.48;21.98;;;;;;;;;;5014651;28;20227;-81
2023/05/11 10:28:07;;;;;;;23.25;20.85;;;;;;;;;;5040716;28;20282;-81
2023/05/11 10:30:33;;;;;;;23.15;20.60;;;;;;;;;;5021298;28;20223;-81
2023/05/11 10:33:01;;;;;;;22.20;19.90;;;;;;;;;;5019830;28;20223;-81
2023/05/11 10:35:27;;;;;;;20.08;17.95;;;;;;;;;;5032539;28;20230;-81
2023/05/11 10:37:52;;;;;;;13.95;12.60;;;;;;;;;;5033711;28;20266;-80
2023/05/11 10:40:20;;;;;;;14.13;12.73;;;;;;;;;;5029112;28;20230;-81
2023/05/11 10:43:44;;;;;;;13.80;11.82;;;;;;;;;;5034716;28;20222;-80
2023/05/11 10:46:36;;;;;;;12.18;11.00;;;;;;;;;;4968647;28;20667;-79
2023/05/11 10:49:13;;;;;;;11.90;10.85;;;;;;;;;;5021207;28;20218;-81
2023/05/11 10:52:07;;;;;;;14.50;13.13;;;;;;;;;;5028400;28;20235;-80
2023/05/11 10:54:52;;;;;;;13.57;12.25;;;;;;;;;;5045151;28;20235;-78
2023/05/11 10:57:40;;;;;;;11.27;10.27;;;;;;;;;;5025039;28;20254;-81
2023/05/11 11:00:47;;;;;;;10.32;9.32;;;;;;;;;;5045653;28;20880;-81
2023/05/11 11:03:13;;;;;;;9.15;8.30;;;;;;;;;;4985724;28;20232;-77
2023/05/11 11:05:39;;;;;;;8.60;7.80;;;;;;;;;;5018096;28;21011;-78
2023/05/11 11:08:07;;;;;;;9.35;8.40;;;;;;;;;;5031036;28;20224;-78
2023/05/11 11:10:34;;;;;;;9.05;8.20;;;;;;;;;;5039756;28;20228;-78
2023/05/11 11:13:01;;;;;;;8.38;7.68;;;;;;;;;;5024790;28;20223;-78
2023/05/11 11:15:47;;;;;;;9.07;8.18;;;;;;;;;;5021824;28;20235;-79
2023/05/11 11:18:25;;;;;;;8.43;7.63;;;;;;;;;;5023448;28;20223;-77
2023/05/11 11:20:52;;;;;;;6.70;6.10;;;;;;;;;;5017182;28;20228;-80
2023/05/11 11:24:00;;;;;;;7.10;6.40;;;;;;;;;;5036177;28;20231;-77
2023/05/11 11:27:00;;;;;;;5.60;5.20;;;;;;;;;;4941649;28;20246;-77
2023/05/11 11:29:27;;;;;;;5.53;5.13;;;;;;;;;;4902163;28;20234;-78
2023/05/11 11:31:52;;;;;;;6.30;5.45;;;;;;;;;;4985765;28;20790;-79
2023/05/11 11:34:24;;;;;;;5.93;5.43;;;;;;;;;;5004655;28;20257;-80
2023/05/11 11:37:04;;;;;;;6.50;6.00;;;;;;;;;;5045839;28;20224;-82
2023/05/11 11:39:42;;;;;;;6.32;5.72;;;;;;;;;;5030517;28;20215;-81
2023/05/11 11:42:08;;;;;;;6.22;5.72;;;;;;;;;;5036419;28;20223;-80
2023/05/11 11:44:34;;;;;;;6.07;5.47;;;;;;;;;;5038634;28;20549;-80
2023/05/11 11:47:19;;;;;;;7.18;6.60;;;;;;;;;;5031232;28;20227;-81
2023/05/11 11:49:48;;;;;;;7.00;6.40;;;;;;;;;;5002994;28;20207;-80
2023/05/11 11:52:26;;;;;;;8.23;7.43;;;;;;;;;;5031510;28;20343;-80
2023/05/11 11:54:51;;;;;;;9.50;8.60;;;;;;;;;;5044756;28;20228;-81
2023/05/11 11:57:32;;;;;;;9.52;8.63;;;;;;;;;;5027213;28;20241;-82
2023/05/11 12:00:04;;;;;;;9.35;8.48;;;;;;;;;;5037380;28;20293;-80
2023/05/11 12:02:42;;;;;;;9.02;8.30;;;;;;;;;;5046752;28;20280;-79
2023/05/11 12:05:21;;;;;;;9.55;8.65;;;;;;;;;;5019044;28;20216;-79
2023/05/11 12:07:49;;;;;;;9.60;8.80;;;;;;;;;;5018887;28;20215;-82
2023/05/11 12:10:16;;;;;;;10.20;9.30;;;;;;;;;;5045059;28;20603;-81
2023/05/11 12:12:45;;;;;;;11.93;10.75;;;;;;;;;;5004224;28;20223;-82
2023/05/11 12:15:28;;;;;;;10.90;9.90;;;;;;;;;;5032600;28;20231;-81
2023/05/11 12:17:56;;;;;;;10.77;9.77;;;;;;;;;;5022783;28;20372;-80
2023/05/11 12:20:21;;;;;;;10.43;9.52;;;;;;;;;;5002595;28;20337;-83
2023/05/11 12:22:48;;;;;;;10.95;9.93;;;;;;;;;;5037359;28;20208;-79
2023/05/11 12:25:16;;;;;;;11.07;10.18;;;;;;;;;;4982788;28;20224;-82
2023/05/11 12:27:51;;;;;;;11.13;10.18;;;;;;;;;;5018250;28;20302;-82
2023/05/11 12:30:32;;;;;;;11.70;10.60;;;;;;;;;;5032817;28;20227;-80
2023/05/11 12:33:00;;;;;;;12.00;11.00;;;;;;;;;;5019485;28;20317;-80
2023/05/11 12:35:31;;;;;;;11.85;10.85;;;;;;;;;;5026028;28;20216;-78
2023/05/11 12:38:06;;;;;;;12.57;11.35;;;;;;;;;;5015219;28;20220;-82
2023/05/11 12:40:31;;;;;;;11.98;10.85;;;;;;;;;;5004145;28;20233;-80
2023/05/11 12:42:58;;;;;;;12.02;11.07;;;;;;;;;;5030457;28;20212;-83
2023/05/11 12:45:25;;;;;;;13.05;11.85;;;;;;;;;;5034930;28;20219;-80
2023/05/11 12:47:51;;;;;;;12.77;11.57;;;;;;;;;;5011318;28;20220;-80
2023/05/11 12:50:24;;;;;;;12.15;11.00;;;;;;;;;;5034653;28;20219;-81
2023/05/11 12:52:50;;;;;;;12.38;11.27;;;;;;;;;;5031798;28;20208;-81
2023/05/11 12:55:28;;;;;;;11.20;10.20;;;;;;;;;;5028278;28;20237;-81
2023/05/11 12:57:54;;;;;;;11.43;10.35;;;;;;;;;;5012978;28;20231;-81
2023/05/11 13:00:20;;;;;;;13.10;12.02;;;;;;;;;;5040440;28;20220;-81
2023/05/11 13:02:50;;;;;;;13.10;11.88;;;;;;;;;;5031773;28;20226;-82
2023/05/11 13:05:24;;;;;;;12.25;11.23;;;;;;;;;;5015731;28;20550;-81
2023/05/11 13:08:00;;;;;;;11.98;10.98;;;;;;;;;;5032023;28;20287;-81
2023/05/11 13:10:26;;;;;;;11.60;10.50;;;;;;;;;;5059873;28;20250;-80
2023/05/11 13:12:52;;;;;;;11.68;10.68;;;;;;;;;;5044514;28;20208;-80
2023/05/11 13:15:18;;;;;;;10.23;9.35;;;;;;;;;;5052664;28;20232;-80
2023/05/11 13:17:44;;;;;;;12.27;11.20;;;;;;;;;;5042100;28;20227;-80
2023/05/11 13:20:26;;;;;;;11.35;10.18;;;;;;;;;;5036367;28;20227;-82
2023/05/11 13:23:05;;;;;;;10.70;9.77;;;;;;;;;;5042308;28;20230;-80
2023/05/11 13:25:30;;;;;;;10.73;9.80;;;;;;;;;;5023325;28;20214;-84
2023/05/11 13:27:56;;;;;;;11.57;10.57;;;;;;;;;;5007480;28;20696;-81
2023/05/11 13:30:21;;;;;;;11.57;10.45;;;;;;;;;;5028901;28;20239;-80
2023/05/11 13:32:47;;;;;;;10.50;9.60;;;;;;;;;;5048534;28;20215;-83
2023/05/11 13:35:15;;;;;;;10.20;9.30;;;;;;;;;;5032226;28;20224;-81
2023/05/11 13:37:40;;;;;;;10.70;9.57;;;;;;;;;;5031900;28;20223;-80
2023/05/11 13:40:10;;;;;;;10.10;9.18;;;;;;;;;;5032586;28;20283;-80
2023/05/11 13:42:36;;;;;;;10.27;9.38;;;;;;;;;;5066720;28;20219;-80
2023/05/11 13:45:04;;;;;;;10.10;9.13;;;;;;;;;;5023424;28;20227;-81
2023/05/11 13:47:30;;;;;;;10.27;9.38;;;;;;;;;;5054693;28;20223;-79
2023/05/11 13:49:56;;;;;;;10.40;9.45;;;;;;;;;;5031403;28;20222;-81
2023/05/11 13:52:23;;;;;;;10.98;9.00;;;;;;;;;;5029207;28;20255;-82
2023/05/11 13:54:49;;;;;;;10.18;9.23;;;;;;;;;;5026648;28;20228;-81
2023/05/11 13:57:14;;;;;;;11.00;9.27;;;;;;;;;;5044483;28;20261;-79
2023/05/11 13:59:40;;;;;;;11.40;10.18;;;;;;;;;;5025554;28;20220;-79
2023/05/11 14:02:10;;;;;;;9.98;9.07;;;;;;;;;;5033376;28;20215;-80
2023/05/11 14:04:36;;;;;;;9.88;8.95;;;;;;;;;;5010236;28;20219;-80
2023/05/11 14:07:03;;;;;;;10.82;9.82;;;;;;;;;;5004644;28;20228;-82
2023/05/11 14:09:29;;;;;;;11.00;9.90;;;;;;;;;;5007994;28;20239;-82
2023/05/11 14:11:55;;;;;;;10.15;9.25;;;;;;;;;;5042363;28;20338;-79
2023/05/11 14:14:20;;;;;;;9.57;8.52;;;;;;;;;;5017790;28;20314;-80
2023/05/11 14:16:46;;;;;;;8.75;7.95;;;;;;;;;;4994820;28;20223;-80
2023/05/11 14:19:12;;;;;;;9.55;8.60;;;;;;;;;;5010675;28;20276;-82
2023/05/11 14:21:40;;;;;;;8.65;7.90;;;;;;;;;;5005153;28;20269;-81
2023/05/11 14:24:06;;;;;;;9.80;8.23;;;;;;;;;;5034939;28;20254;-82
2023/05/11 14:26:34;;;;;;;9.25;8.30;;;;;;;;;;5025328;28;20227;-80
2023/05/11 14:28:59;;;;;;;9.32;8.52;;;;;;;;;;5023655;28;20236;-82
2023/05/11 14:31:27;;;;;;;10.68;9.63;;;;;;;;;;5021214;28;20227;-80